Time;durP1;ratioP1;P1;durP2;ratioP2;P2;SDS_P1;SDS_P2;PMS_P1;PMS_P2;Temp;Humidity;BMP_temperature;BMP_pressure;BME280_temperature;BME280_humidity;BME280_pressure;Samples;Min_cycle;Max_cycle;Signal;HPM_P1;HPM_P2
2022/09/23 00:01:13;;;;;;;10.15;6.00;;;7.30;99.90;;;;;;4991592;28;20050;-75
2022/09/23 00:03:44;;;;;;;8.80;6.20;;;7.30;99.90;;;;;;4990503;28;20116;-77
2022/09/23 00:06:22;;;;;;;9.48;5.63;;;7.20;99.90;;;;;;4986708;28;20050;-74
2022/09/23 00:08:50;;;;;;;10.25;6.25;;;7.20;99.90;;;;;;4989097;28;20042;-74
2022/09/23 00:11:21;;;;;;;9.35;5.65;;;7.20;99.90;;;;;;4991021;28;20493;-76
2022/09/23 00:13:53;;;;;;;15.05;6.22;;;7.20;99.90;;;;;;4989782;28;20046;-75
2022/09/23 00:16:31;;;;;;;8.83;5.97;;;7.10;99.90;;;;;;4988047;28;20038;-76
2022/09/23 00:18:59;;;;;;;10.40;5.75;;;7.10;99.90;;;;;;4988457;28;20573;-76
2022/09/23 00:21:28;;;;;;;10.77;5.93;;;7.10;99.90;;;;;;4984783;28;20046;-74
2022/09/23 00:23:55;;;;;;;7.75;5.40;;;7.10;99.90;;;;;;4983381;28;20050;-76
2022/09/23 00:26:24;;;;;;;9.85;5.57;;;7.10;99.90;;;;;;4985628;28;20046;-77
2022/09/23 00:28:51;;;;;;;9.02;5.90;;;7.10;99.90;;;;;;4985474;28;20408;-76
2022/09/23 00:31:22;;;;;;;9.43;5.97;;;7.00;99.90;;;;;;4989415;28;20039;-76
2022/09/23 00:33:58;;;;;;;10.48;5.78;;;7.00;99.90;;;;;;4991264;28;20412;-75
2022/09/23 00:36:27;;;;;;;7.93;5.82;;;7.00;99.90;;;;;;4980374;28;20050;-75
2022/09/23 00:38:55;;;;;;;12.18;5.65;;;7.00;99.90;;;;;;4988456;28;20494;-75
2022/09/23 00:41:23;;;;;;;8.32;6.07;;;6.90;99.90;;;;;;4990787;28;20542;-75
2022/09/23 00:43:56;;;;;;;9.10;6.22;;;6.90;99.90;;;;;;4976065;28;20096;-74
2022/09/23 00:46:39;;;;;;;9.30;5.63;;;6.90;99.90;;;;;;4987145;28;20050;-76
2022/09/23 00:49:12;;;;;;;9.30;6.10;;;6.90;99.90;;;;;;4976787;28;20066;-75
2022/09/23 00:51:46;;;;;;;8.40;5.95;;;6.80;99.90;;;;;;4974206;28;20042;-74
2022/09/23 00:54:15;;;;;;;11.32;6.57;;;6.80;99.90;;;;;;4992088;28;20050;-74
2022/09/23 00:56:42;;;;;;;10.23;6.07;;;6.70;99.90;;;;;;4989381;28;20047;-74
2022/09/23 00:59:10;;;;;;;9.98;5.95;;;6.70;99.90;;;;;;4999263;28;20473;-75
2022/09/23 01:01:38;;;;;;;11.18;6.20;;;6.70;99.90;;;;;;4990075;28;20551;-74
2022/09/23 01:04:06;;;;;;;14.50;5.82;;;6.70;99.90;;;;;;4981585;28;20113;-76
2022/09/23 01:06:34;;;;;;;10.85;6.78;;;6.70;99.90;;;;;;4994418;28;20042;-75
2022/09/23 01:09:02;;;;;;;10.23;5.82;;;6.70;99.90;;;;;;4991478;28;20042;-75
2022/09/23 01:11:50;;;;;;;10.13;6.10;;;6.70;99.90;;;;;;4991682;28;20553;-74
2022/09/23 01:14:27;;;;;;;12.13;6.03;;;6.60;99.90;;;;;;4980153;28;20042;-76
2022/09/23 01:17:15;;;;;;;9.05;6.43;;;6.60;99.90;;;;;;4983226;28;20489;-75
2022/09/23 01:20:27;;;;;;;8.20;5.40;;;6.60;99.90;;;;;;4990776;28;20088;-75
2022/09/23 01:23:47;;;;;;;8.47;5.60;;;6.60;99.90;;;;;;4991959;28;20870;-74
2022/09/23 01:26:42;;;;;;;10.38;5.88;;;6.50;99.90;;;;;;4961787;28;20326;-76
2022/09/23 01:29:15;;;;;;;8.82;6.13;;;6.50;99.90;;;;;;4952539;28;20085;-73
2022/09/23 01:31:55;;;;;;;8.68;5.45;;;6.50;99.90;;;;;;4936084;28;20363;-75
2022/09/23 01:34:56;;;;;;;6.63;5.25;;;6.50;99.90;;;;;;4971415;28;20164;-75
2022/09/23 01:37:37;;;;;;;10.18;6.45;;;6.50;99.90;;;;;;4930291;29;20198;-73
2022/09/23 01:40:13;;;;;;;10.55;5.88;;;6.50;99.90;;;;;;4953277;28;20078;-75
2022/09/23 01:42:57;;;;;;;8.57;5.60;;;6.50;99.90;;;;;;4934489;28;20407;-73
2022/09/23 01:45:30;;;;;;;9.43;5.53;;;6.40;99.90;;;;;;4922985;28;20552;-75
2022/09/23 01:48:09;;;;;;;9.65;5.40;;;6.40;99.90;;;;;;4955960;28;20409;-75
2022/09/23 01:50:55;;;;;;;9.07;5.43;;;6.40;99.90;;;;;;4955076;28;20056;-76
2022/09/23 01:53:58;;;;;;;9.65;5.53;;;6.40;99.90;;;;;;4952990;28;20097;-76
2022/09/23 01:56:51;;;;;;;11.23;6.95;;;6.30;99.90;;;;;;4955162;28;20146;-74
2022/09/23 01:59:29;;;;;;;10.77;6.95;;;6.30;99.90;;;;;;4945293;28;20065;-74
2022/09/23 02:02:03;;;;;;;9.30;5.57;;;6.30;99.90;;;;;;4970570;28;20050;-74
2022/09/23 02:04:53;;;;;;;8.70;5.13;;;6.30;99.90;;;;;;4993055;28;20054;-74
2022/09/23 02:07:30;;;;;;;7.72;5.40;;;6.30;99.90;;;;;;4989371;28;20092;-74
2022/09/23 02:10:11;;;;;;;7.70;5.00;;;6.30;99.90;;;;;;4992713;28;20038;-74
2022/09/23 02:12:42;;;;;;;7.27;5.37;;;6.30;99.90;;;;;;4991285;28;20449;-73
2022/09/23 02:15:17;;;;;;;7.68;5.03;;;6.30;99.90;;;;;;4984265;28;20397;-74
2022/09/23 02:17:52;;;;;;;9.60;5.18;;;6.30;99.90;;;;;;5003796;28;20127;-77
2022/09/23 02:20:28;;;;;;;8.63;5.38;;;6.30;99.90;;;;;;4980906;28;20145;-75
2022/09/23 02:23:19;;;;;;;8.00;4.90;;;6.30;99.90;;;;;;4978845;28;20476;-74
2022/09/23 02:26:06;;;;;;;9.85;5.82;;;6.20;99.90;;;;;;4990879;28;20126;-77
2022/09/23 02:28:47;;;;;;;9.43;5.60;;;6.30;99.90;;;;;;4975981;28;20063;-76
2022/09/23 02:31:37;;;;;;;9.75;5.70;;;6.20;99.90;;;;;;4987584;28;20050;-75
2022/09/23 02:34:25;;;;;;;8.48;5.63;;;6.20;99.90;;;;;;4989239;28;20046;-76
2022/09/23 02:37:04;;;;;;;8.45;5.63;;;6.20;99.90;;;;;;4985724;28;20133;-74
2022/09/23 02:40:05;;;;;;;9.98;5.90;;;6.10;99.90;;;;;;5005619;28;20046;-75
2022/09/23 02:43:03;;;;;;;9.48;5.82;;;6.10;99.90;;;;;;4980805;28;20539;-73
2022/09/23 02:45:32;;;;;;;10.73;6.03;;;6.10;99.90;;;;;;4982271;28;20042;-75
2022/09/23 02:48:26;;;;;;;9.40;6.13;;;6.10;99.90;;;;;;4991174;28;20038;-76
2022/09/23 02:50:53;;;;;;;8.18;5.47;;;6.00;99.90;;;;;;4974753;28;20058;-74
2022/09/23 02:53:24;;;;;;;10.25;5.88;;;6.00;99.90;;;;;;5002971;28;20050;-75
2022/09/23 02:55:52;;;;;;;;;;;6.00;99.90;;;;;;5005741;28;20505;-74
2022/09/23 02:58:20;;;;;;;14.32;6.32;;;6.00;99.90;;;;;;4960298;28;19929;-75
2022/09/23 03:01:03;;;;;;;9.80;5.80;;;5.90;99.90;;;;;;4990617;28;20509;-76
2022/09/23 03:03:40;;;;;;;12.02;6.22;;;5.90;99.90;;;;;;4991479;28;20452;-75
2022/09/23 03:06:30;;;;;;;10.77;6.40;;;5.90;99.90;;;;;;4991478;28;20073;-75
2022/09/23 03:09:05;;;;;;;11.55;6.47;;;5.90;99.90;;;;;;4990818;28;20041;-74
2022/09/23 03:11:39;;;;;;;10.80;6.80;;;5.90;99.90;;;;;;4989120;28;20408;-75
2022/09/23 03:14:38;;;;;;;10.65;5.97;;;5.90;99.90;;;;;;4980161;28;20042;-76
2022/09/23 03:17:28;;;;;;;11.15;6.25;;;5.90;99.90;;;;;;4976094;28;20138;-76
2022/09/23 03:20:34;;;;;;;9.20;6.05;;;5.90;99.90;;;;;;5005998;28;20508;-76
2022/09/23 03:23:06;;;;;;;8.23;5.90;;;5.90;99.90;;;;;;4937197;28;20051;-74
2022/09/23 03:25:39;;;;;;;9.63;5.90;;;5.80;99.90;;;;;;5005355;28;20050;-75
2022/09/23 03:28:07;;;;;;;;;;;5.80;99.90;;;;;;4975552;28;20046;-75
2022/09/23 03:30:35;;;;;;;9.15;5.97;;;5.80;99.90;;;;;;5006709;28;20292;-76
2022/09/23 03:33:06;;;;;;;9.15;5.78;;;5.80;99.90;;;;;;4971374;28;20054;-76
2022/09/23 03:36:48;;;;;;;8.02;5.97;;;5.80;99.90;;;;;;4991842;28;20038;-75
2022/09/23 03:38:32;;;;;;;11.32;5.65;;;5.80;99.90;;;;;;4989932;28;20046;-75
2022/09/23 03:41:03;;;;;;;10.30;6.85;;;5.70;99.90;;;;;;5001866;28;20105;-76
2022/09/23 03:43:30;;;;;;;10.10;6.45;;;5.70;99.90;;;;;;4985550;28;20450;-75
2022/09/23 03:46:06;;;;;;;9.90;6.32;;;5.80;99.90;;;;;;4989416;28;20062;-75
2022/09/23 03:48:34;;;;;;;10.73;6.50;;;5.70;99.90;;;;;;4990433;28;20463;-75
2022/09/23 03:51:19;;;;;;;8.38;5.97;;;5.70;99.90;;;;;;4992196;28;20038;-76
2022/09/23 03:53:47;;;;;;;9.82;6.55;;;5.70;99.90;;;;;;5004198;28;20042;-76
2022/09/23 03:56:14;;;;;;;9.07;6.15;;;5.70;99.90;;;;;;4983366;28;20050;-74
2022/09/23 03:58:42;;;;;;;8.88;6.10;;;5.70;99.90;;;;;;5005323;28;20440;-75
2022/09/23 04:01:10;;;;;;;12.45;6.78;;;5.80;99.90;;;;;;4981051;28;20523;-75
2022/09/23 04:03:37;;;;;;;8.30;6.07;;;5.70;99.90;;;;;;4985198;28;20054;-75
2022/09/23 04:06:05;;;;;;;9.25;6.28;;;5.70;99.90;;;;;;4998006;28;20476;-74
2022/09/23 04:08:32;;;;;;;8.68;6.13;;;5.70;99.90;;;;;;4990721;28;20049;-75
2022/09/23 04:11:01;;;;;;;11.60;6.32;;;5.80;99.90;;;;;;4990534;28;20042;-75
2022/09/23 04:13:28;;;;;;;9.30;6.68;;;5.70;99.90;;;;;;4989873;28;20042;-75
2022/09/23 04:15:55;;;;;;;10.45;6.80;;;5.70;99.90;;;;;;4987356;28;20054;-74
2022/09/23 04:18:23;;;;;;;10.25;6.93;;;5.70;99.90;;;;;;4989971;28;20050;-76
2022/09/23 04:20:50;;;;;;;12.18;6.88;;;5.70;99.90;;;;;;4990223;28;20143;-75
2022/09/23 04:23:17;;;;;;;9.48;6.88;;;5.70;99.90;;;;;;4987291;28;20057;-74
2022/09/23 04:25:46;;;;;;;9.98;6.63;;;5.70;99.90;;;;;;4986466;28;20050;-75
2022/09/23 04:28:14;;;;;;;9.50;6.55;;;5.70;99.90;;;;;;5003400;28;20390;-73
2022/09/23 04:30:43;;;;;;;9.30;6.65;;;5.60;99.90;;;;;;5006214;28;20409;-75
2022/09/23 04:33:11;;;;;;;9.70;6.75;;;5.60;99.90;;;;;;4990893;28;20456;-76
2022/09/23 04:35:41;;;;;;;10.20;6.57;;;5.60;99.90;;;;;;4967162;28;20039;-74
2022/09/23 04:38:12;;;;;;;10.52;6.55;;;5.60;99.90;;;;;;4988079;28;20049;-76
2022/09/23 04:40:39;;;;;;;9.70;6.90;;;5.60;99.90;;;;;;4989557;28;20046;-74
2022/09/23 04:43:06;;;;;;;14.35;7.43;;;5.50;99.90;;;;;;4987890;28;20054;-75
2022/09/23 04:45:39;;;;;;;9.85;7.10;;;5.50;99.90;;;;;;4981510;28;20038;-76
2022/09/23 04:48:08;;;;;;;8.93;6.63;;;5.50;99.90;;;;;;4983403;28;20125;-74
2022/09/23 04:50:36;;;;;;;9.23;6.55;;;5.50;99.90;;;;;;4991523;28;20048;-75
2022/09/23 04:53:04;;;;;;;12.98;7.65;;;5.50;99.90;;;;;;5008886;28;20043;-76
2022/09/23 04:55:31;;;;;;;9.50;6.82;;;5.50;99.90;;;;;;4987752;28;20540;-74
2022/09/23 04:57:58;;;;;;;8.82;6.45;;;5.50;99.90;;;;;;4989341;28;20050;-76
2022/09/23 05:00:26;;;;;;;11.73;7.70;;;5.50;99.90;;;;;;4983847;28;20054;-75
2022/09/23 05:02:54;;;;;;;11.27;7.28;;;5.50;99.90;;;;;;5002943;28;20049;-74
2022/09/23 05:05:23;;;;;;;10.40;6.68;;;5.50;99.90;;;;;;4984967;28;20051;-76
2022/09/23 05:07:50;;;;;;;10.90;6.90;;;5.50;99.90;;;;;;4963293;28;20046;-74
2022/09/23 05:10:17;;;;;;;10.77;6.85;;;5.50;99.90;;;;;;5005433;28;20417;-75
2022/09/23 05:12:45;;;;;;;13.85;7.53;;;5.50;99.90;;;;;;4990769;28;20493;-75
2022/09/23 05:15:15;;;;;;;13.40;7.15;;;5.50;99.90;;;;;;4990828;28;20056;-74
2022/09/23 05:17:42;;;;;;;15.25;7.70;;;5.50;99.90;;;;;;4972914;28;20050;-75
2022/09/23 05:20:10;;;;;;;13.65;7.40;;;5.60;99.90;;;;;;4999367;28;20109;-76
2022/09/23 05:22:37;;;;;;;12.00;7.50;;;5.60;99.90;;;;;;4990873;28;20073;-75
2022/09/23 05:25:05;;;;;;;10.82;6.70;;;5.60;99.90;;;;;;4990383;28;20054;-75
2022/09/23 05:27:32;;;;;;;12.80;8.32;;;5.70;99.90;;;;;;5005646;28;20568;-72
2022/09/23 05:30:00;;;;;;;12.10;7.53;;;5.70;99.90;;;;;;4989614;28;20478;-75
2022/09/23 05:32:27;;;;;;;17.88;9.05;;;5.90;99.90;;;;;;5005043;28;20420;-74
2022/09/23 05:34:54;;;;;;;15.65;7.95;;;5.90;99.90;;;;;;5006017;28;20100;-75
2022/09/23 05:37:22;;;;;;;13.25;7.70;;;5.90;99.90;;;;;;5006072;28;20064;-75
2022/09/23 05:39:49;;;;;;;13.35;7.00;;;6.10;99.90;;;;;;4975766;28;20512;-75
2022/09/23 05:42:17;;;;;;;15.55;7.30;;;6.10;99.90;;;;;;4978437;28;20054;-75
2022/09/23 05:44:45;;;;;;;13.25;7.18;;;6.20;99.90;;;;;;4978977;28;20101;-74
2022/09/23 05:47:13;;;;;;;16.00;6.93;;;6.20;99.90;;;;;;4992695;28;20073;-75
2022/09/23 05:49:40;;;;;;;14.55;7.05;;;6.30;99.90;;;;;;4992677;28;20031;-75
2022/09/23 05:52:25;;;;;;;12.48;7.68;;;6.30;99.90;;;;;;4991434;28;20050;-75
2022/09/23 05:54:52;;;;;;;11.48;7.00;;;6.40;99.90;;;;;;4993568;28;20052;-75
2022/09/23 05:57:20;;;;;;;10.93;6.95;;;6.50;99.90;;;;;;4992760;28;20050;-75
2022/09/23 05:59:47;;;;;;;16.65;8.57;;;6.50;99.90;;;;;;5016114;28;20042;-75
2022/09/23 06:02:14;;;;;;;13.13;7.35;;;6.60;99.90;;;;;;4992298;28;20092;-76
2022/09/23 06:04:42;;;;;;;11.30;6.90;;;6.60;99.90;;;;;;4989499;28;20081;-76
2022/09/23 06:07:10;;;;;;;11.32;6.75;;;6.70;99.90;;;;;;4988444;28;20042;-75
2022/09/23 06:09:37;;;;;;;12.18;7.00;;;6.80;99.90;;;;;;4993920;28;20598;-77
2022/09/23 06:12:05;;;;;;;13.23;6.70;;;6.80;99.90;;;;;;4987640;28;20088;-73
2022/09/23 06:14:32;;;;;;;13.35;8.32;;;6.90;99.90;;;;;;5006125;28;20034;-74
2022/09/23 06:17:00;;;;;;;12.52;6.43;;;6.90;99.90;;;;;;4989265;28;20158;-75
2022/09/23 06:19:27;;;;;;;11.82;7.10;;;7.00;99.90;;;;;;4990361;28;20039;-71
2022/09/23 06:21:54;;;;;;;15.32;8.13;;;7.10;99.90;;;;;;4990293;28;20624;-70
2022/09/23 06:24:21;;;;;;;13.70;7.50;;;7.20;99.90;;;;;;5002512;28;20042;-70
2022/09/23 06:26:56;;;;;;;16.35;8.07;;;7.20;99.90;;;;;;4990816;28;20120;-70
2022/09/23 06:29:24;;;;;;;13.77;7.45;;;7.30;99.90;;;;;;4991495;28;20042;-71
2022/09/23 06:31:51;;;;;;;15.15;8.30;;;7.40;99.90;;;;;;4993066;28;20492;-70
2022/09/23 06:34:18;;;;;;;13.85;8.70;;;7.50;99.90;;;;;;4991190;28;20149;-71
2022/09/23 06:36:46;;;;;;;28.88;15.15;;;7.60;99.90;;;;;;4991383;28;20038;-70
2022/09/23 06:39:14;;;;;;;29.48;17.50;;;7.70;99.90;;;;;;4992558;28;20042;-71
2022/09/23 06:41:43;;;;;;;25.45;14.23;;;7.70;99.90;;;;;;4991809;28;20046;-70
2022/09/23 06:44:14;;;;;;;16.40;10.25;;;7.80;99.90;;;;;;4993329;28;20043;-71
2022/09/23 06:46:41;;;;;;;15.55;9.63;;;8.00;99.90;;;;;;5007191;28;20413;-71
2022/09/23 06:49:10;;;;;;;11.35;7.70;;;8.10;99.90;;;;;;4992832;28;20046;-71
2022/09/23 06:51:39;;;;;;;12.13;7.13;;;8.20;99.90;;;;;;4981078;28;20042;-69
2022/09/23 06:54:06;;;;;;;13.05;8.25;;;8.40;99.90;;;;;;5002217;28;20046;-70
2022/09/23 06:56:34;;;;;;;16.50;7.50;;;8.40;99.90;;;;;;4994971;28;20042;-72
2022/09/23 06:59:08;;;;;;;9.25;7.63;;;8.50;99.90;;;;;;4982110;28;20448;-71
2022/09/23 07:01:35;;;;;;;11.10;7.63;;;8.70;99.90;;;;;;4988131;28;20069;-73
2022/09/23 07:04:03;;;;;;;10.10;7.35;;;8.80;99.90;;;;;;4990445;28;20074;-70
2022/09/23 07:06:30;;;;;;;13.20;7.82;;;8.90;99.90;;;;;;4987336;28;20639;-70
2022/09/23 07:08:59;;;;;;;11.48;7.50;;;9.00;99.90;;;;;;4990619;28;20046;-70
2022/09/23 07:11:27;;;;;;;13.25;8.00;;;9.10;99.90;;;;;;4986534;28;20242;-69
2022/09/23 07:13:54;;;;;;;12.77;8.07;;;9.20;99.90;;;;;;4991357;28;20046;-70
2022/09/23 07:16:21;;;;;;;13.20;8.38;;;9.30;99.90;;;;;;4991079;28;20046;-70
2022/09/23 07:18:49;;;;;;;13.07;7.93;;;9.40;99.90;;;;;;4990922;28;20046;-69
2022/09/23 07:21:18;;;;;;;10.45;7.32;;;9.50;99.90;;;;;;4990188;28;20515;-70
2022/09/23 07:23:47;;;;;;;11.65;8.27;;;9.60;99.90;;;;;;4989898;28;20504;-70
2022/09/23 07:26:16;;;;;;;13.07;7.55;;;9.70;99.90;;;;;;4985856;28;20038;-70
2022/09/23 07:28:44;;;;;;;13.10;8.73;;;9.90;99.90;;;;;;4974345;28;20064;-72
2022/09/23 07:31:14;;;;;;;10.77;7.50;;;10.00;99.90;;;;;;4968041;28;20134;-71
2022/09/23 07:33:47;;;;;;;10.75;7.45;;;10.10;99.90;;;;;;4989649;28;20433;-71
2022/09/23 07:36:17;;;;;;;15.25;8.63;;;10.20;99.90;;;;;;4987170;28;20552;-71
2022/09/23 07:38:46;;;;;;;11.93;8.55;;;10.30;99.90;;;;;;4974066;28;20049;-71
2022/09/23 07:41:16;;;;;;;16.50;9.02;;;10.50;99.90;;;;;;4986212;28;20295;-70
2022/09/23 07:43:44;;;;;;;12.55;7.50;;;10.60;99.90;;;;;;4982986;28;20049;-71
2022/09/23 07:46:15;;;;;;;16.38;7.40;;;10.70;99.90;;;;;;4990392;28;20096;-70
2022/09/23 07:48:44;;;;;;;12.38;7.80;;;10.90;99.90;;;;;;4990450;28;20081;-69
2022/09/23 07:51:17;;;;;;;10.40;7.25;;;11.00;99.90;;;;;;4990714;28;20053;-71
2022/09/23 07:53:47;;;;;;;12.25;7.90;;;11.30;99.90;;;;;;4986376;28;20121;-70
2022/09/23 07:56:15;;;;;;;12.18;8.30;;;11.40;99.90;;;;;;4987045;28;20066;-71
2022/09/23 07:58:42;;;;;;;11.43;7.47;;;11.50;99.90;;;;;;4984240;28;20161;-69
2022/09/23 08:01:11;;;;;;;10.63;8.05;;;11.60;99.90;;;;;;4989668;28;20502;-70
2022/09/23 08:03:38;;;;;;;11.25;7.20;;;11.70;99.90;;;;;;4982492;28;20077;-70
2022/09/23 08:06:12;;;;;;;10.52;7.32;;;11.90;99.90;;;;;;4983981;28;20582;-71
2022/09/23 08:08:42;;;;;;;9.32;6.88;;;12.00;99.90;;;;;;4988994;28;20507;-69
2022/09/23 08:11:13;;;;;;;11.45;7.20;;;12.10;99.90;;;;;;4990458;28;20496;-69
2022/09/23 08:13:40;;;;;;;9.65;7.32;;;12.20;99.90;;;;;;4983099;28;20078;-70
2022/09/23 08:16:08;;;;;;;11.93;7.63;;;12.40;99.90;;;;;;5003251;28;20061;-70
2022/09/23 08:18:36;;;;;;;9.77;7.38;;;12.50;99.90;;;;;;4978924;28;20058;-70
2022/09/23 08:21:04;;;;;;;13.88;7.25;;;12.70;99.90;;;;;;4989026;28;20539;-70
2022/09/23 08:23:32;;;;;;;11.15;7.07;;;12.80;99.90;;;;;;4991399;28;20046;-71
2022/09/23 08:26:03;;;;;;;9.32;6.82;;;13.00;99.90;;;;;;4990711;28;20050;-70
2022/09/23 08:28:32;;;;;;;10.30;6.63;;;13.10;99.90;;;;;;4987303;28;20117;-70
2022/09/23 08:31:00;;;;;;;14.30;7.15;;;13.20;99.90;;;;;;4989843;28;20427;-69
2022/09/23 08:33:27;;;;;;;11.30;6.75;;;13.40;99.90;;;;;;4977767;28;20114;-69
2022/09/23 08:36:01;;;;;;;8.60;6.90;;;13.60;99.90;;;;;;5008563;28;20073;-70
2022/09/23 08:38:29;;;;;;;12.45;6.03;;;13.80;99.90;;;;;;4989685;28;20496;-70
2022/09/23 08:41:05;;;;;;;8.30;5.43;;;13.90;99.90;;;;;;4989906;28;20093;-70
2022/09/23 08:43:35;;;;;;;7.40;5.55;;;14.00;99.90;;;;;;4983957;28;20042;-69
2022/09/23 08:46:07;;;;;;;6.95;5.85;;;14.10;99.90;;;;;;4989704;28;20432;-70
2022/09/23 08:48:43;;;;;;;7.28;4.93;;;14.20;99.90;;;;;;4989988;28;20042;-70
2022/09/23 08:51:14;;;;;;;7.43;5.07;;;14.10;99.90;;;;;;4981388;28;20046;-70
2022/09/23 08:53:41;;;;;;;6.35;5.05;;;14.30;99.90;;;;;;4983831;28;20046;-70
2022/09/23 08:56:14;;;;;;;7.55;5.22;;;14.50;99.90;;;;;;4988857;28;20397;-69
2022/09/23 08:59:13;;;;;;;8.82;6.00;;;14.70;99.90;;;;;;4989003;28;20077;-69
2022/09/23 09:01:40;;;;;;;7.82;5.82;;;14.80;99.90;;;;;;4989018;28;20047;-71
2022/09/23 09:04:34;;;;;;;7.13;5.93;;;15.10;99.90;;;;;;5005194;28;20042;-70
2022/09/23 09:07:06;;;;;;;7.63;5.63;;;15.10;99.90;;;;;;4975237;28;20051;-70
2022/09/23 09:10:01;;;;;;;9.20;7.10;;;15.10;99.90;;;;;;5000677;28;20144;-70
2022/09/23 09:12:59;;;;;;;7.40;6.60;;;15.20;99.90;;;;;;4987946;28;20086;-69
2022/09/23 09:15:27;;;;;;;10.70;6.30;;;15.30;99.90;;;;;;4971141;28;20050;-70
2022/09/23 09:18:08;;;;;;;7.30;6.57;;;15.40;99.90;;;;;;4988935;28;20490;-70
2022/09/23 09:20:58;;;;;;;7.30;6.60;;;15.60;99.90;;;;;;4987882;28;20050;-70
2022/09/23 09:23:33;;;;;;;7.47;6.18;;;15.80;99.90;;;;;;4984764;28;20069;-70
2022/09/23 09:26:02;;;;;;;6.95;6.15;;;15.90;99.90;;;;;;4992244;28;20030;-69
2022/09/23 09:28:50;;;;;;;7.38;6.68;;;16.10;99.90;;;;;;4982507;28;20035;-72
2022/09/23 09:31:37;;;;;;;9.63;6.82;;;16.20;99.90;;;;;;5007005;28;20042;-70
2022/09/23 09:34:15;;;;;;;9.77;6.57;;;16.40;99.90;;;;;;4994452;28;20045;-70
2022/09/23 09:36:46;;;;;;;6.93;6.28;;;16.40;99.90;;;;;;4993278;28;20045;-71
2022/09/23 09:39:14;;;;;;;5.40;4.90;;;16.60;99.90;;;;;;4993075;28;20074;-71
2022/09/23 09:41:47;;;;;;;5.32;4.82;;;16.70;99.90;;;;;;4999920;28;20073;-70
2022/09/23 09:44:39;;;;;;;5.57;5.07;;;16.90;99.90;;;;;;4993688;28;20085;-70
2022/09/23 09:47:07;;;;;;;6.35;5.38;;;17.00;99.90;;;;;;5007202;28;20058;-70
2022/09/23 09:49:47;;;;;;;6.07;4.85;;;17.20;99.90;;;;;;4993132;28;20042;-70
2022/09/23 09:52:21;;;;;;;6.85;5.18;;;17.30;99.90;;;;;;4990149;28;20038;-70
2022/09/23 09:54:49;;;;;;;6.10;5.20;;;17.50;99.90;;;;;;4991191;28;20073;-71
2022/09/23 09:57:31;;;;;;;9.05;5.13;;;17.90;99.90;;;;;;5004820;28;20050;-71
2022/09/23 10:00:17;;;;;;;5.50;5.00;;;18.00;99.90;;;;;;4990843;28;20046;-72
2022/09/23 10:02:46;;;;;;;7.80;6.00;;;17.90;99.90;;;;;;4991880;28;20053;-71
2022/09/23 10:05:26;;;;;;;5.53;5.03;;;18.00;99.90;;;;;;4983916;28;20054;-71
2022/09/23 10:07:53;;;;;;;7.15;5.40;;;18.20;99.90;;;;;;4991823;28;20413;-71
2022/09/23 10:10:24;;;;;;;5.95;5.35;;;18.30;99.90;;;;;;4989492;28;20050;-71
2022/09/23 10:13:15;;;;;;;5.82;5.32;;;18.40;99.90;;;;;;4982267;28;20137;-71
2022/09/23 10:15:43;;;;;;;6.30;4.80;;;18.50;99.90;;;;;;4991484;28;20058;-70
2022/09/23 10:18:18;;;;;;;5.85;5.28;;;18.50;99.90;;;;;;4992066;28;20050;-70
2022/09/23 10:20:46;;;;;;;5.80;5.20;;;18.60;99.90;;;;;;4981046;28;20110;-71
2022/09/23 10:23:20;;;;;;;5.68;5.25;;;18.40;99.90;;;;;;4990810;28;20285;-71
2022/09/23 10:26:02;;;;;;;5.13;4.72;;;18.40;99.90;;;;;;4988063;28;20054;-71
2022/09/23 10:28:38;;;;;;;9.32;5.25;;;18.70;99.90;;;;;;4992360;28;20539;-70
2022/09/23 10:31:26;;;;;;;5.60;5.15;;;18.90;99.90;;;;;;4990644;28;20066;-71
2022/09/23 10:33:59;;;;;;;6.28;5.68;;;19.00;99.90;;;;;;4992927;28;20046;-71
2022/09/23 10:36:29;;;;;;;5.80;5.30;;;19.40;99.90;;;;;;4990801;28;20074;-71
2022/09/23 10:46:37;;;;;;;5.45;4.95;;;19.70;99.90;;;;;;4988076;28;20046;-71
2022/09/23 10:48:23;;;;;;;6.22;5.70;;;20.20;99.90;;;;;;4985450;28;20412;-70
2022/09/23 10:50:53;;;;;;;5.78;5.28;;;20.70;99.90;;;;;;4982289;28;20515;-71
2022/09/23 10:53:52;;;;;;;5.32;4.90;;;20.80;99.90;;;;;;4994095;28;20073;-72
2022/09/23 10:56:34;;;;;;;5.32;4.82;;;21.00;99.90;;;;;;4988852;28;20061;-70
2022/09/23 10:59:07;;;;;;;4.78;4.38;;;21.20;99.90;;;;;;5005339;28;20385;-71
2022/09/23 11:01:34;;;;;;;5.78;4.75;;;21.40;99.90;;;;;;4985277;28;20501;-71
2022/09/23 11:04:17;;;;;;;5.13;4.72;;;21.60;99.90;;;;;;4989718;28;20479;-71
2022/09/23 11:07:16;;;;;;;5.97;4.80;;;21.60;99.90;;;;;;4983016;28;20049;-68
2022/09/23 11:09:57;;;;;;;5.65;5.15;;;21.90;99.90;;;;;;4991004;28;20050;-69
2022/09/23 11:12:37;;;;;;;5.07;4.68;;;22.60;99.90;;;;;;4989304;28;20511;-72
2022/09/23 11:15:31;;;;;;;5.60;5.10;;;22.70;99.20;;;;;;5000180;28;20519;-69
2022/09/23 11:18:16;;;;;;;6.78;5.00;;;22.40;98.80;;;;;;4998071;28;20043;-69
2022/09/23 11:21:01;;;;;;;5.03;4.63;;;22.70;99.10;;;;;;4987904;28;20038;-70
2022/09/23 11:23:44;;;;;;;5.78;5.32;;;22.80;98.10;;;;;;4989531;28;20049;-71
2022/09/23 11:26:33;;;;;;;5.70;5.25;;;22.60;97.00;;;;;;4990053;28;20516;-71
2022/09/23 11:29:21;;;;;;;6.82;5.05;;;22.80;95.70;;;;;;4989732;28;20034;-70
2022/09/23 11:32:31;;;;;;;5.57;5.13;;;23.00;94.50;;;;;;4983999;28;20038;-72
2022/09/23 11:35:24;;;;;;;5.47;4.97;;;22.80;93.30;;;;;;4991182;28;20045;-72
2022/09/23 11:38:20;;;;;;;5.43;4.93;;;22.80;93.10;;;;;;4999682;28;20055;-71
2022/09/23 11:40:53;;;;;;;5.32;4.90;;;22.90;92.80;;;;;;4983730;28;20042;-71
2022/09/23 11:43:30;;;;;;;5.70;5.15;;;22.80;92.50;;;;;;4987416;28;20062;-71
2022/09/23 11:46:00;;;;;;;5.88;5.38;;;22.90;93.00;;;;;;4996273;28;20042;-71
2022/09/23 11:48:48;;;;;;;5.90;5.40;;;23.10;93.20;;;;;;4990948;28;20038;-71
2022/09/23 11:51:25;;;;;;;6.40;5.85;;;23.20;92.80;;;;;;4991480;28;20046;-70
2022/09/23 11:54:00;;;;;;;6.15;5.57;;;23.20;92.80;;;;;;4991403;28;20038;-70
2022/09/23 11:56:51;;;;;;;6.43;5.78;;;22.60;91.70;;;;;;4990516;28;20046;-71
2022/09/23 11:59:36;;;;;;;6.10;5.50;;;22.60;92.30;;;;;;4990166;28;20061;-71
2022/09/23 12:02:36;;;;;;;6.15;5.65;;;23.10;91.80;;;;;;4989541;28;20109;-71
2022/09/23 12:05:17;;;;;;;5.43;4.93;;;22.90;91.60;;;;;;4951220;28;20046;-72
2022/09/23 12:07:56;;;;;;;6.00;5.60;;;22.80;92.10;;;;;;4979700;28;20056;-72
2022/09/23 12:10:49;;;;;;;5.60;5.20;;;23.20;92.10;;;;;;4989336;28;20082;-72
2022/09/23 12:13:43;;;;;;;6.10;5.40;;;23.40;91.10;;;;;;4973201;28;20077;-73
2022/09/23 12:16:36;;;;;;;5.90;5.38;;;23.20;91.90;;;;;;4977426;28;20050;-71
2022/09/23 12:19:50;;;;;;;5.88;5.38;;;23.30;90.70;;;;;;5003367;28;20485;-71
2022/09/23 12:22:24;;;;;;;7.47;5.28;;;23.60;90.20;;;;;;4931065;29;20060;-71
2022/09/23 12:25:28;;;;;;;5.82;5.32;;;23.50;90.00;;;;;;4930485;29;20055;-71
2022/09/23 12:28:05;;;;;;;6.18;5.60;;;24.10;89.60;;;;;;4929460;29;20048;-73
2022/09/23 12:30:36;;;;;;;6.28;5.68;;;24.50;90.00;;;;;;4933262;29;20139;-72
2022/09/23 12:33:11;;;;;;;6.05;5.55;;;25.00;88.60;;;;;;4930624;29;20051;-72
2022/09/23 12:35:44;;;;;;;5.13;4.72;;;25.70;90.00;;;;;;4931169;29;20144;-71
2022/09/23 12:38:20;;;;;;;5.63;5.13;;;25.50;86.00;;;;;;4931285;29;20526;-72
2022/09/23 12:40:48;;;;;;;6.40;5.40;;;25.80;84.50;;;;;;4931039;29;20565;-72
2022/09/23 12:43:37;;;;;;;6.70;5.00;;;26.10;82.50;;;;;;4932408;29;20056;-72
2022/09/23 12:46:26;;;;;;;5.82;5.32;;;26.00;80.90;;;;;;4930767;29;20058;-72
2022/09/23 12:48:56;;;;;;;5.25;4.82;;;26.40;82.20;;;;;;4929480;29;20134;-72
2022/09/23 12:51:34;;;;;;;5.85;5.07;;;27.40;78.10;;;;;;4930951;29;20478;-72
2022/09/23 12:54:04;;;;;;;5.57;5.07;;;28.00;78.10;;;;;;4915094;29;20545;-72
2022/09/23 12:56:41;;;;;;;5.47;5.07;;;28.80;73.80;;;;;;4933188;29;20154;-72
2022/09/23 12:59:27;;;;;;;6.18;5.65;;;28.80;73.90;;;;;;4982954;28;20098;-72
2022/09/23 13:01:56;;;;;;;5.90;5.00;;;29.70;72.30;;;;;;4996732;28;20042;-73
2022/09/23 13:07:32;;;;;;;6.05;5.55;;;30.90;66.30;;;;;;4994069;28;20058;-73
2022/09/23 13:10:14;;;;;;;6.60;5.95;;;30.90;64.20;;;;;;4994118;28;20495;-72
2022/09/23 13:12:43;;;;;;;6.22;5.10;;;31.40;66.10;;;;;;4998244;28;20054;-73
2022/09/23 13:15:32;;;;;;;5.53;5.03;;;32.40;62.80;;;;;;4993494;28;20121;-72
2022/09/23 13:18:19;;;;;;;5.47;5.07;;;30.80;62.40;;;;;;4984247;28;20105;-73
2022/09/23 13:20:51;;;;;;;5.70;5.20;;;31.80;61.80;;;;;;4993347;28;20057;-73
2022/09/23 13:23:26;;;;;;;6.13;5.65;;;32.30;60.50;;;;;;5008268;28;20066;-71
2022/09/23 13:25:56;;;;;;;6.07;5.65;;;31.80;59.60;;;;;;4988427;28;20424;-72
2022/09/23 13:28:28;;;;;;;5.40;5.00;;;32.60;60.00;;;;;;4989065;28;20038;-73
2022/09/23 13:30:57;;;;;;;5.90;5.40;;;32.50;58.00;;;;;;4979198;28;20054;-73
2022/09/23 13:33:44;;;;;;;6.68;6.18;;;32.90;58.50;;;;;;4990743;28;20659;-73
2022/09/23 13:36:14;;;;;;;6.10;5.70;;;34.00;57.00;;;;;;4993364;28;20645;-73
2022/09/23 13:38:41;;;;;;;5.95;5.55;;;33.40;55.20;;;;;;4993514;28;20096;-72